Terminal Aerodrome Forecast
Issued by NWS Charleston, WV

Current Version | Previous Version | Graphics & Text | Print | Product List | Glossary On
Versions: 1 2 3 4 5 6 7 8 9 10 11 12 13 14 15 16 17 18 19 20 21 22 23 24 25
289
FTUS41 KRLX 161421 AAA
TAFBKW
TAF AMD
KBKW 161421Z 1614/1712 22005KT 2SM +RA BR BKN007 OVC015
     FM161700 31015G29KT 2SM -RA OVC007
     FM162100 32013G23KT 3SM -SHRA OVC008
     FM162200 32011G20KT P6SM OVC008
     FM170200 34008KT P6SM BKN018
     FM170300 34007KT P6SM SCT022=

USA.gov is the U.S. government's official web portal to all federal, state and local government web resources and services.